EW8461 Weather Reports


Display with metric or nautical units.
time (UTC)temp
F
wind
direction
speed
MPH
gust
MPH
rain 1hr
in
rain 24hr
in
rain mn
in
humidity
%
barometer
mb
20200229073151 41 40 0.0 0.0 0.00 0.12 0.12 95 1022.0
20200229071558 41 40 0.0 0.0 0.00 0.12 0.12 95 1022.1
20200229070106 41 40 0.0 1.0 0.00 0.12 0.12 95 1021.9
20200229064715 41 40 0.0 1.0 0.00 0.12 0.12 96 1021.8
20200229063105 41 40 0.0 0.0 0.00 0.12 0.12 95 1021.8
20200229061629 41 40 0.0 0.0 0.00 0.12 0.12 95 1021.8
20200229060123 41 40 0.0 0.0 0.00 0.12 0.12 95 1021.6
20200229054549 42 40 0.0 0.0 0.03 0.12 0.12 94 1021.6
20200229053127 42 40 0.0 0.0 0.05 0.12 0.12 94 1021.7
20200229051643 42 40 0.0 0.0 0.09 0.12 0.12 95 1021.9
20200229050128 42 40 0.0 1.0 0.10 0.12 0.12 94 1021.9
20200229044642 42 24 0.0 2.0 0.08 0.10 0.10 93 1021.9
20200229043122 43 349 0.0 3.0 0.05 0.07 0.07 92 1021.9
20200229041635 44 278 0.0 5.0 0.03 0.04 0.04 90 1021.7
20200229040059 46 327 0.0 1.0 0.01 0.02 0.02 92 1021.2
20200229034542 46 304 0.0 1.0 0.01 0.02 0.02 91 1020.9
20200229033055 46 24 0.0 1.0 0.01 0.02 0.02 90 1020.8
20200229031554 46 343 0.0 1.0 0.00 0.01 0.01 90 1020.7
20200229030043 47 343 0.0 0.0 0.00 0.01 0.01 90 1020.6
20200229024639 47 343 0.0 1.0 0.01 0.01 0.01 89 1020.6
20200229023031 47 343 0.0 1.0 0.01 0.01 0.01 90 1020.6
20200229021621 48 298 0.0 2.0 0.01 0.01 0.01 88 1020.6
20200229020041 49 277 0.0 0.0 0.01 0.01 0.01 86 1020.6
20200229014544 49 302 0.0 0.0 0.00 0.00 0.00 83 1020.6
20200229013044 50 318 0.0 2.0 0.00 0.00 0.00 78 1020.6
20200229011536 50 22 0.0 1.0 0.00 0.00 0.00 77 1020.7
20200229010031 50 15 0.0 1.0 0.00 0.00 0.00 77 1020.6
20200229004547 51 344 0.0 1.0 0.00 0.00 0.00 75 1020.6
20200229003029 51 206 0.0 1.0 0.00 0.00 0.00 74 1020.6
20200229001529 52 206 0.0 8.0 0.00 0.00 0.00 74 1020.6
20200229000056 52 323 1.0 5.0 0.00 0.00 0.00 71 1020.9
20200228234532 53 302 0.0 6.0 0.00 0.00 0.00 73 1020.8
20200228233100 54 128 2.0 8.0 0.00 0.00 0.00 73 1020.2
20200228231544 55 341 0.0 2.0 0.00 0.00 0.00 73 1019.8
20200228230036 56 360 0.0 4.0 0.00 0.00 0.00 71 1019.6
20200228224620 56 332 1.0 4.0 0.00 0.00 0.00 70 1019.5
20200228223058 56 342 0.0 5.0 0.00 0.00 0.00 72 1019.4
20200228221557 57 342 1.0 5.0 0.00 0.00 0.00 69 1019.3
20200228220028 58 343 1.0 5.0 0.00 0.00 0.00 66 1019.2
20200228214538 58 288 0.0 3.0 0.00 0.00 0.00 69 1019.0
20200228213111 57 5 0.0 6.0 0.00 0.00 0.00 70 1018.9
20200228211532 56 342 0.0 5.0 0.00 0.00 0.00 72 1019.4
20200228210045 56 346 0.0 5.0 0.00 0.00 0.00 73 1019.7
20200228204516 56 5 0.0 6.0 0.00 0.00 0.00 75 1020.0
20200228203028 55 5 1.0 4.0 0.00 0.00 0.00 76 1020.1
20200228201509 54 66 0.0 2.0 0.00 0.00 0.00 77 1020.2
20200228200023 54 5 1.0 4.0 0.00 0.00 0.00 76 1020.4
20200228194504 53 148 0.0 2.0 0.00 0.00 0.00 77 1020.7
20200228193001 53 10 0.0 3.0 0.00 0.00 0.00 78 1020.8
20200228191808 52 175 0.0 3.0 0.00 0.00 0.00 80 1020.9
20200228190127 50 182 0.0 3.0 0.00 0.00 0.00 83 1021.1
20200228184624 47 215 0.0 0.0 0.00 0.00 0.00 90 1021.3
20200228183145 44 173 0.0 1.0 0.00 0.00 0.00 93 1021.6
20200228181630 43 173 0.0 1.0 0.00 0.00 0.00 98 1021.8
20200228180052 42 173 0.0 1.0 0.00 0.00 0.00 98 1021.9
20200228174707 41 173 0.0 1.0 0.00 0.00 0.00 98 1022.1
20200228173201 39 172 0.0 0.0 0.00 0.00 0.00 98 1022.4
20200228171551 37 172 0.0 0.0 0.00 0.00 0.00 97 1022.6
20200228170040 35 172 0.0 0.0 0.00 0.00 0.00 97 1022.7
20200228164620 34 172 0.0 0.0 0.00 0.00 0.00 97 1022.7
20200228163054 33 172 0.0 0.0 0.00 0.00 0.00 97 1022.7
20200228161615 32 172 0.0 0.0 0.00 0.00 0.00 96 1022.6
20200228160104 31 172 0.0 0.0 0.00 0.00 0.00 96 1022.6
20200228154639 31 175 0.0 0.0 0.00 0.00 0.00 96 1022.7
20200228153118 31 175 0.0 0.0 0.00 0.00 0.00 96 1022.6
20200228151550 31 175 0.0 0.0 0.00 0.00 0.00 96 1022.8
20200228150129 31 178 0.0 0.0 0.00 0.00 0.00 96 1022.8
20200228144557 31 178 0.0 0.0 0.00 0.00 0.00 96 1022.9
20200228143024 31 178 0.0 0.0 0.00 0.00 0.00 96 1023.1
20200228141550 31 178 0.0 0.0 0.00 0.00 0.00 96 1023.2
20200228140031 31 178 0.0 0.0 0.00 0.00 0.00 95 1023.1
20200228134521 31 178 0.0 0.0 0.00 0.00 0.00 95 1023.2
20200228133025 31 178 0.0 0.0 0.00 0.00 0.00 95 1023.4
20200228131533 31 178 0.0 0.0 0.00 0.00 0.00 95 1023.3
20200228130017 31 178 0.0 0.0 0.00 0.00 0.00 95 1023.5
20200228124525 32 178 0.0 0.0 0.00 0.00 0.00 95 1023.5
20200228123020 32 178 0.0 0.0 0.00 0.00 0.00 95 1023.5
20200228121532 32 178 0.0 0.0 0.00 0.00 0.00 95 1023.6
20200228120012 32 178 0.0 0.0 0.00 0.00 0.00 95 1023.7
20200228114506 32 178 0.0 0.0 0.00 0.00 0.00 95 1023.7
20200228113005 32 178 0.0 0.0 0.00 0.00 0.00 95 1023.8
20200228111503 32 178 0.0 0.0 0.00 0.00 0.00 95 1023.8
20200228104654 33 178 0.0 0.0 0.00 0.00 0.00 95 1024.3
20200228103201 33 178 0.0 0.0 0.00 0.00 0.00 95 1024.6
20200228101703 33 177 0.0 0.0 0.00 0.00 0.00 94 1024.7
20200228100148 34 178 0.0 0.0 0.00 0.00 0.00 94 1024.7
20200228094814 34 177 0.0 0.0 0.00 0.00 0.00 94 1024.9
20200228093123 34 177 0.0 0.0 0.00 0.00 0.00 94 1024.8
20200228091701 34 177 0.0 0.0 0.00 0.00 0.00 94 1025.1
20200228090112 35 177 0.0 0.0 0.00 0.00 0.00 94 1025.4
20200228084615 35 178 0.0 0.0 0.00 0.00 0.00 94 1025.8
20200228083144 35 177 0.0 0.0 0.00 0.00 0.00 94 1026.0
20200228081737 36 177 0.0 0.0 0.00 0.00 0.00 94 1026.2
20200228080103 36 177 0.0 0.0 0.00 0.00 0.00 94 1026.4
20200228074548 36 177 0.0 0.0 0.00 0.00 0.00 94 1026.6